createdAt,value
2022-09-20T00:01:30.088Z,1.63
2022-09-20T00:03:58.873Z,2.10
2022-09-20T00:06:28.542Z,1.80
2022-09-20T00:08:56.680Z,1.83
2022-09-20T00:11:29.112Z,1.80
2022-09-20T00:13:58.259Z,1.90
2022-09-20T00:16:31.659Z,1.80
2022-09-20T00:19:00.144Z,1.80
2022-09-20T00:21:29.072Z,1.90
2022-09-20T00:23:57.859Z,1.90
2022-09-20T00:26:26.546Z,1.80
2022-09-20T00:28:53.680Z,1.33
2022-09-20T00:31:20.872Z,1.80
2022-09-20T00:34:06.374Z,1.90
2022-09-20T00:36:33.305Z,2.00
2022-09-20T00:39:02.123Z,1.90
2022-09-20T00:41:31.033Z,1.83
2022-09-20T00:43:58.792Z,1.90
2022-09-20T00:46:37.990Z,1.90
2022-09-20T00:49:14.747Z,2.00
2022-09-20T00:51:45.790Z,1.80
2022-09-20T00:54:19.496Z,1.70
2022-09-20T00:56:47.447Z,1.67
2022-09-20T00:59:34.889Z,1.70
2022-09-20T01:02:18.941Z,1.43
2022-09-20T01:04:48.084Z,1.73
2022-09-20T01:07:18.426Z,1.90
2022-09-20T01:09:45.365Z,2.07
2022-09-20T01:12:17.912Z,1.70
2022-09-20T01:14:47.535Z,1.70
2022-09-20T01:17:15.076Z,1.60
2022-09-20T01:20:15.663Z,2.07
2022-09-20T01:23:08.832Z,1.70
2022-09-20T01:26:06.755Z,1.80
2022-09-20T01:28:34.428Z,2.23
2022-09-20T01:31:13.235Z,1.90
2022-09-20T01:34:01.994Z,2.30
2022-09-20T01:36:53.905Z,1.67
2022-09-20T01:39:29.792Z,2.03
2022-09-20T01:42:05.517Z,1.93
2022-09-20T01:44:44.567Z,1.50
2022-09-20T01:47:19.718Z,1.73
2022-09-20T01:49:57.483Z,1.90
2022-09-20T01:52:36.585Z,1.60
2022-09-20T01:55:41.848Z,2.03
2022-09-20T01:58:32.863Z,1.60
2022-09-20T02:01:17.723Z,2.20
2022-09-20T02:04:22.211Z,1.90
2022-09-20T02:07:08.122Z,2.00
2022-09-20T02:09:57.037Z,2.23
2022-09-20T02:12:52.166Z,2.03
2022-09-20T02:15:38.773Z,2.30
2022-09-20T02:18:28.862Z,1.90
2022-09-20T02:21:14.136Z,2.13
2022-09-20T02:24:03.648Z,1.83
2022-09-20T02:26:38.361Z,2.67
2022-09-20T02:29:23.054Z,1.83
2022-09-20T02:32:04.367Z,1.83
2022-09-20T02:34:37.224Z,2.50
2022-09-20T02:37:25.764Z,2.40
2022-09-20T02:40:31.101Z,2.10
2022-09-20T02:43:14.637Z,2.00
2022-09-20T02:45:54.790Z,2.63
2022-09-20T02:48:31.886Z,2.20
2022-09-20T02:51:40.751Z,2.30
2022-09-20T02:54:35.854Z,1.97
2022-09-20T02:57:25.876Z,2.40
2022-09-20T03:00:05.210Z,3.33
2022-09-20T03:02:55.055Z,2.47
2022-09-20T03:05:58.592Z,2.50
2022-09-20T03:08:45.428Z,2.40
2022-09-20T03:11:29.413Z,2.20
2022-09-20T03:14:22.910Z,2.17
2022-09-20T03:17:00.068Z,2.30
2022-09-20T03:19:35.982Z,2.47
2022-09-20T03:22:16.691Z,2.33
2022-09-20T03:25:16.324Z,2.50
2022-09-20T03:28:38.300Z,2.23
2022-09-20T03:31:05.052Z,2.10
2022-09-20T03:33:46.956Z,2.20
2022-09-20T03:36:54.769Z,1.93
2022-09-20T03:39:58.943Z,2.40
2022-09-20T03:42:29.148Z,2.43
2022-09-20T03:45:19.941Z,2.40
2022-09-20T03:48:22.161Z,2.23
2022-09-20T03:51:20.479Z,2.20
2022-09-20T03:54:09.859Z,2.40
2022-09-20T03:56:59.048Z,2.43
2022-09-20T03:59:47.963Z,2.23
2022-09-20T04:02:32.987Z,2.60
2022-09-20T04:05:02.858Z,2.60
2022-09-20T04:07:41.620Z,2.50
2022-09-20T04:10:35.815Z,2.60
2022-09-20T04:13:27.368Z,2.87
2022-09-20T04:16:13.051Z,2.60
2022-09-20T04:18:57.126Z,2.40
2022-09-20T04:21:35.043Z,2.57
2022-09-20T04:24:23.720Z,2.63
2022-09-20T04:27:17.774Z,2.83
2022-09-20T04:29:53.204Z,2.40
2022-09-20T04:32:31.809Z,2.40
2022-09-20T04:35:22.128Z,3.77
2022-09-20T04:37:51.847Z,2.77
2022-09-20T04:40:43.322Z,2.47
2022-09-20T04:43:37.776Z,2.40
2022-09-20T04:46:35.833Z,2.30
2022-09-20T04:49:33.738Z,2.30
2022-09-20T04:52:13.031Z,2.37
2022-09-20T04:54:54.903Z,2.40
2022-09-20T04:58:00.463Z,2.40
2022-09-20T05:00:57.735Z,2.70
2022-09-20T05:03:58.504Z,2.63
2022-09-20T05:06:31.136Z,2.70
2022-09-20T05:09:32.603Z,2.57
2022-09-20T05:12:34.386Z,3.10
2022-09-20T05:15:43.420Z,2.60
2022-09-20T05:18:45.080Z,3.10
2022-09-20T05:21:53.190Z,2.87
2022-09-20T05:24:38.738Z,2.73
2022-09-20T05:27:25.167Z,3.00
2022-09-20T05:30:04.918Z,2.57
2022-09-20T05:32:44.059Z,4.37
2022-09-20T05:35:13.894Z,2.97
2022-09-20T05:38:20.395Z,3.07
2022-09-20T05:41:19.350Z,3.10
2022-09-20T05:44:13.427Z,7.40
2022-09-20T05:46:59.100Z,7.07
2022-09-20T05:49:34.844Z,5.83
2022-09-20T05:52:46.489Z,4.03
2022-09-20T05:55:28.545Z,6.90
2022-09-20T05:58:34.466Z,5.90
2022-09-20T06:01:11.226Z,5.77
2022-09-20T06:04:08.248Z,4.70
2022-09-20T06:07:03.554Z,3.70
2022-09-20T06:09:56.711Z,3.90
2022-09-20T06:12:26.464Z,3.37
2022-09-20T06:15:01.995Z,3.53
2022-09-20T06:17:46.524Z,2.70
2022-09-20T06:20:54.221Z,2.67
2022-09-20T06:23:22.075Z,2.90
2022-09-20T06:25:56.086Z,3.10
2022-09-20T06:28:56.376Z,3.33
2022-09-20T06:31:25.747Z,9.03
2022-09-20T06:34:04.493Z,7.40
2022-09-20T06:36:52.321Z,6.23
2022-09-20T06:40:30.251Z,4.07
2022-09-20T06:43:00.256Z,3.23
2022-09-20T06:45:27.207Z,3.50
2022-09-20T06:47:53.932Z,3.17
2022-09-20T06:50:20.879Z,3.40
2022-09-20T06:52:47.671Z,3.20
2022-09-20T06:55:27.227Z,3.50
2022-09-20T06:57:55.806Z,3.40
2022-09-20T07:00:22.692Z,3.00
2022-09-20T07:02:49.550Z,2.90
2022-09-20T07:05:18.037Z,3.20
2022-09-20T07:07:45.253Z,2.80
2022-09-20T07:10:12.278Z,3.23
2022-09-20T07:12:39.184Z,3.40
2022-09-20T07:15:07.267Z,3.70
2022-09-20T07:17:34.248Z,3.73
2022-09-20T07:20:01.117Z,3.13
2022-09-20T07:22:28.240Z,3.47
2022-09-20T07:24:55.203Z,3.50
2022-09-20T07:27:22.006Z,3.80
2022-09-20T07:29:49.033Z,3.67
2022-09-20T07:32:17.197Z,3.73
2022-09-20T07:34:44.480Z,3.27
2022-09-20T07:37:12.135Z,3.87
2022-09-20T07:39:38.978Z,3.40
2022-09-20T07:42:08.740Z,3.30
2022-09-20T07:44:35.684Z,3.23
2022-09-20T07:47:02.620Z,3.00
2022-09-20T07:49:32.269Z,3.30
2022-09-20T07:51:59.341Z,3.23
2022-09-20T07:54:27.579Z,2.17
2022-09-20T07:56:54.744Z,2.50
2022-09-20T07:59:21.992Z,2.00
2022-09-20T08:01:48.916Z,1.83
2022-09-20T08:04:15.798Z,1.40
2022-09-20T08:06:44.945Z,1.43
2022-09-20T08:09:13.130Z,1.10
2022-09-20T08:11:42.814Z,1.20
2022-09-20T08:14:15.182Z,0.93
2022-09-20T08:16:47.601Z,0.97
2022-09-20T08:19:23.274Z,1.37
2022-09-20T08:21:51.612Z,0.97
2022-09-20T08:24:21.038Z,1.13
2022-09-20T08:26:48.731Z,1.30
2022-09-20T08:29:18.287Z,1.00
2022-09-20T08:31:50.760Z,1.40
2022-09-20T08:34:18.356Z,1.33
2022-09-20T08:36:47.256Z,1.53
2022-09-20T08:42:24.008Z,1.33
2022-09-20T08:45:22.249Z,2.20
2022-09-20T08:48:00.473Z,1.40
2022-09-20T08:50:34.978Z,1.53
2022-09-20T08:53:07.836Z,1.40
2022-09-20T08:55:40.044Z,1.60
2022-09-20T08:58:10.861Z,1.00
2022-09-20T09:00:39.693Z,1.43
2022-09-20T09:03:11.999Z,1.30
2022-09-20T09:05:58.126Z,1.67
2022-09-20T09:08:37.626Z,1.30
2022-09-20T09:11:09.555Z,1.63
2022-09-20T09:13:57.482Z,1.87
2022-09-20T09:16:34.613Z,1.30
2022-09-20T09:19:33.310Z,1.37
2022-09-20T09:22:05.624Z,1.40
2022-09-20T09:24:33.054Z,1.37
2022-09-20T09:27:17.498Z,1.10
2022-09-20T09:29:55.707Z,1.23
2022-09-20T09:32:32.680Z,1.70
2022-09-20T09:35:31.609Z,1.53
2022-09-20T09:38:01.081Z,1.57
2022-09-20T09:40:29.600Z,1.27
2022-09-20T09:42:59.825Z,1.43
2022-09-20T09:45:38.936Z,0.77
2022-09-20T09:48:30.625Z,0.93
2022-09-20T09:51:15.563Z,1.23
2022-09-20T09:53:47.454Z,1.23
2022-09-20T09:56:44.038Z,1.10
2022-09-20T09:59:32.886Z,0.90
2022-09-20T10:02:29.274Z,1.23
2022-09-20T10:05:05.079Z,1.10
2022-09-20T10:08:07.192Z,1.13
2022-09-20T10:10:41.670Z,1.57
2022-09-20T10:13:15.081Z,1.37
2022-09-20T10:15:55.039Z,1.00
2022-09-20T10:18:47.167Z,0.57
2022-09-20T10:21:43.604Z,1.10
2022-09-20T10:24:31.004Z,0.80
2022-09-20T10:27:26.165Z,1.20
2022-09-20T10:30:04.352Z,1.20
2022-09-20T10:33:15.741Z,0.80
2022-09-20T10:36:12.588Z,0.80
2022-09-20T10:39:10.623Z,1.00
2022-09-20T10:42:02.280Z,1.10
2022-09-20T10:44:57.649Z,0.63
2022-09-20T10:47:42.259Z,0.90
2022-09-20T10:50:36.714Z,0.87
2022-09-20T10:53:23.030Z,1.33
2022-09-20T10:56:18.415Z,0.83
2022-09-20T10:58:48.300Z,0.77
2022-09-20T11:01:24.347Z,1.10
2022-09-20T11:04:18.384Z,1.27
2022-09-20T11:07:07.559Z,1.10
2022-09-20T11:09:40.694Z,1.00
2022-09-20T11:12:39.541Z,1.20
2022-09-20T11:15:22.903Z,0.80
2022-09-20T11:18:09.953Z,1.00
2022-09-20T11:20:46.703Z,1.17
2022-09-20T11:23:25.351Z,0.97
2022-09-20T11:25:56.990Z,1.03
2022-09-20T11:28:39.263Z,1.10
2022-09-20T11:31:22.225Z,0.93
2022-09-20T11:33:53.894Z,1.50
2022-09-20T11:36:58.957Z,1.10
2022-09-20T11:39:44.471Z,1.17
2022-09-20T11:42:26.424Z,1.17
2022-09-20T11:44:54.892Z,0.80
2022-09-20T11:47:52.750Z,1.30
2022-09-20T11:50:51.279Z,1.47
2022-09-20T11:53:52.353Z,1.13
2022-09-20T11:56:39.944Z,1.00
2022-09-20T11:59:40.373Z,1.03
2022-09-20T12:02:45.031Z,1.87
2022-09-20T12:05:33.896Z,1.23
2022-09-20T12:08:03.974Z,1.20
2022-09-20T12:10:39.336Z,1.23
2022-09-20T12:13:18.457Z,0.93
2022-09-20T12:15:45.463Z,1.10
2022-09-20T12:18:49.204Z,1.00
2022-09-20T12:21:18.570Z,1.10
2022-09-20T12:24:00.420Z,1.00
2022-09-20T12:26:27.144Z,1.30
2022-09-20T12:28:56.609Z,1.27
2022-09-20T12:31:38.514Z,0.83
2022-09-20T12:34:05.271Z,1.03
2022-09-20T12:36:38.373Z,1.10
2022-09-20T12:39:11.366Z,1.30
2022-09-20T12:41:57.832Z,1.47
2022-09-20T12:44:43.758Z,1.30
2022-09-20T12:47:10.629Z,1.00
2022-09-20T12:50:06.624Z,1.33
2022-09-20T12:52:58.359Z,1.53
2022-09-20T12:55:51.616Z,0.97
2022-09-20T12:58:23.026Z,1.00
2022-09-20T13:00:50.011Z,1.00
2022-09-20T13:03:40.423Z,1.30
2022-09-20T13:06:07.249Z,0.83
2022-09-20T13:08:43.305Z,1.27
2022-09-20T13:11:21.096Z,0.97
2022-09-20T13:13:58.580Z,1.23
2022-09-20T13:16:51.452Z,1.13
2022-09-20T13:19:21.011Z,1.03
2022-09-20T13:21:57.727Z,1.20
2022-09-20T13:24:26.413Z,1.10
2022-09-20T13:26:55.692Z,0.83
2022-09-20T13:29:39.721Z,1.40
2022-09-20T13:32:29.597Z,1.03
2022-09-20T13:35:32.500Z,1.63
2022-09-20T13:38:08.772Z,1.27
2022-09-20T13:40:49.623Z,1.03
2022-09-20T13:43:36.775Z,1.10
2022-09-20T13:46:12.666Z,1.03
2022-09-20T13:48:40.734Z,1.00
2022-09-20T13:51:24.156Z,1.13
2022-09-20T13:53:51.237Z,1.37
2022-09-20T13:56:22.852Z,1.47
2022-09-20T13:58:50.976Z,1.03
2022-09-20T14:01:33.547Z,1.23
2022-09-20T14:04:16.203Z,1.17
2022-09-20T14:06:43.606Z,1.40
2022-09-20T14:09:29.959Z,1.40
2022-09-20T14:11:58.839Z,1.60
2022-09-20T14:14:26.784Z,1.30
2022-09-20T14:16:55.133Z,1.10
2022-09-20T14:19:31.918Z,1.63
2022-09-20T14:22:03.836Z,0.93
2022-09-20T14:24:35.648Z,1.07
2022-09-20T14:27:22.563Z,1.40
2022-09-20T14:29:53.967Z,1.23
2022-09-20T14:32:20.876Z,1.40
2022-09-20T14:34:56.678Z,1.13
2022-09-20T14:37:41.749Z,1.43
2022-09-20T14:40:28.775Z,1.20
2022-09-20T14:43:00.267Z,0.83
2022-09-20T14:45:39.643Z,1.30
2022-09-20T14:48:15.298Z,1.90
2022-09-20T14:50:47.835Z,1.23
2022-09-20T14:53:29.606Z,1.03
2022-09-20T14:56:15.817Z,0.90
2022-09-20T14:59:21.262Z,0.90
2022-09-20T15:02:08.868Z,1.10
2022-09-20T15:04:38.100Z,1.00
2022-09-20T15:07:07.151Z,1.60
2022-09-20T15:09:35.234Z,2.13
2022-09-20T15:12:21.399Z,2.67
2022-09-20T15:14:48.986Z,1.30
2022-09-20T15:17:18.551Z,1.40
2022-09-20T15:19:46.461Z,1.53
2022-09-20T15:22:14.249Z,1.57
2022-09-20T15:24:41.503Z,1.17
2022-09-20T15:27:09.619Z,1.60
2022-09-20T15:29:36.378Z,1.00
2022-09-20T15:32:05.947Z,1.30
2022-09-20T15:34:32.798Z,1.00
2022-09-20T15:36:59.555Z,1.40
2022-09-20T15:39:26.327Z,1.20
2022-09-20T15:41:53.829Z,1.30
2022-09-20T15:44:20.720Z,1.70
2022-09-20T15:46:49.081Z,0.80
2022-09-20T15:49:16.035Z,1.37
2022-09-20T15:51:42.867Z,1.20
2022-09-20T15:54:13.667Z,0.83
2022-09-20T15:56:40.805Z,1.27
2022-09-20T15:59:09.613Z,1.03
2022-09-20T16:01:41.872Z,0.83
2022-09-20T16:04:12.915Z,1.13
2022-09-20T16:06:41.548Z,1.00
2022-09-20T16:09:09.104Z,1.23
2022-09-20T16:11:36.350Z,1.10
2022-09-20T16:14:03.555Z,1.00
2022-09-20T16:16:37.431Z,1.17
2022-09-20T16:19:20.691Z,0.90
2022-09-20T16:21:59.095Z,1.10
2022-09-20T16:24:28.996Z,1.50
2022-09-20T16:26:56.233Z,1.67
2022-09-20T16:29:25.189Z,1.50
2022-09-20T16:31:54.473Z,0.90
2022-09-20T16:34:29.925Z,1.40
2022-09-20T16:36:59.171Z,1.20
2022-09-20T16:39:27.827Z,1.10
2022-09-20T16:42:06.209Z,1.53
2022-09-20T16:44:38.110Z,1.70
2022-09-20T16:47:10.135Z,1.30
2022-09-20T16:49:37.989Z,1.70
2022-09-20T16:52:05.995Z,1.40
2022-09-20T16:54:33.970Z,1.50
2022-09-20T16:57:01.289Z,1.10
2022-09-20T16:59:28.133Z,1.37
2022-09-20T17:01:55.072Z,0.80
2022-09-20T17:04:21.849Z,1.10
2022-09-20T17:06:49.642Z,1.00
2022-09-20T17:09:16.674Z,1.30
2022-09-20T17:11:46.297Z,1.20
2022-09-20T17:14:14.140Z,1.30
2022-09-20T17:16:42.569Z,0.87
2022-09-20T17:19:12.308Z,1.43
2022-09-20T17:21:45.144Z,1.27
2022-09-20T17:24:13.728Z,1.10
2022-09-20T17:26:44.563Z,1.30
2022-09-20T17:29:15.326Z,1.13
2022-09-20T17:31:48.813Z,1.17
2022-09-20T17:34:21.407Z,1.17
2022-09-20T17:36:49.213Z,1.20
2022-09-20T17:39:16.783Z,1.27
2022-09-20T17:41:48.219Z,1.67
2022-09-20T17:44:15.815Z,1.50
2022-09-20T17:46:45.189Z,1.40
2022-09-20T17:49:16.754Z,1.10
2022-09-20T17:51:49.276Z,1.10
2022-09-20T17:54:16.539Z,1.47
2022-09-20T17:56:47.979Z,1.30
2022-09-20T17:59:16.293Z,1.30
2022-09-20T18:01:44.606Z,1.63
2022-09-20T18:04:12.161Z,1.37
2022-09-20T18:06:47.316Z,1.50
2022-09-20T18:09:16.480Z,2.70
2022-09-20T18:11:46.731Z,2.00
2022-09-20T18:14:13.696Z,1.90
2022-09-20T18:16:41.096Z,1.50
2022-09-20T18:19:08.524Z,1.83
2022-09-20T18:21:37.045Z,2.10
2022-09-20T18:24:08.704Z,2.20
2022-09-20T18:26:37.041Z,1.60
2022-09-20T18:29:04.879Z,1.90
2022-09-20T18:31:45.265Z,1.93
2022-09-20T18:34:15.491Z,4.07
2022-09-20T18:36:42.460Z,3.30
2022-09-20T18:39:09.265Z,2.77
2022-09-20T18:41:38.537Z,3.90
2022-09-20T18:44:07.575Z,3.60
2022-09-20T18:46:38.054Z,3.23
2022-09-20T18:49:08.287Z,3.90
2022-09-20T18:51:39.746Z,2.60
2022-09-20T18:54:09.914Z,3.40
2022-09-20T18:56:38.883Z,3.90
2022-09-20T18:59:21.800Z,3.80
2022-09-20T19:02:21.774Z,3.30
2022-09-20T19:05:24.243Z,3.33
2022-09-20T19:08:01.511Z,3.20
2022-09-20T19:10:47.028Z,2.80
2022-09-20T19:13:38.279Z,2.50
2022-09-20T19:16:17.417Z,2.10
2022-09-20T19:19:12.250Z,2.10
2022-09-20T19:21:42.331Z,1.77
2022-09-20T19:24:38.868Z,1.80
2022-09-20T19:27:05.915Z,1.90
2022-09-20T19:29:33.372Z,1.50
2022-09-20T19:32:00.930Z,4.47
2022-09-20T19:34:30.193Z,2.87
2022-09-20T19:37:27.382Z,2.30
2022-09-20T19:40:08.789Z,1.93
2022-09-20T19:42:36.214Z,1.93
2022-09-20T19:45:40.548Z,2.10
2022-09-20T19:48:20.785Z,1.70
2022-09-20T19:50:53.017Z,1.30
2022-09-20T19:53:22.426Z,1.63
2022-09-20T19:55:56.898Z,1.90
2022-09-20T19:58:23.961Z,1.53
2022-09-20T20:00:51.134Z,1.73
2022-09-20T20:03:18.877Z,1.77
2022-09-20T20:06:08.839Z,1.70
2022-09-20T20:08:48.739Z,2.23
2022-09-20T20:11:24.605Z,1.67
2022-09-20T20:14:03.525Z,2.83
2022-09-20T20:16:35.540Z,3.30
2022-09-20T20:19:20.680Z,3.63
2022-09-20T20:22:09.495Z,3.20
2022-09-20T20:24:45.359Z,2.70
2022-09-20T20:27:12.539Z,2.00
2022-09-20T20:29:39.345Z,1.97
2022-09-20T20:32:06.080Z,1.90
2022-09-20T20:34:33.264Z,2.40
2022-09-20T20:37:02.703Z,1.90
2022-09-20T20:39:31.545Z,1.80
2022-09-20T20:42:02.891Z,1.60
2022-09-20T20:44:36.672Z,1.70
2022-09-20T20:47:05.878Z,1.43
2022-09-20T20:49:33.131Z,1.67
2022-09-20T20:52:04.913Z,1.67
2022-09-20T20:54:32.446Z,1.43
2022-09-20T20:56:59.502Z,1.70
2022-09-20T20:59:26.795Z,1.50
2022-09-20T21:01:53.991Z,1.53
2022-09-20T21:04:21.731Z,1.80
2022-09-20T21:06:50.058Z,1.53
2022-09-20T21:09:17.034Z,2.07
2022-09-20T21:11:44.346Z,2.07
2022-09-20T21:14:12.563Z,1.70
2022-09-20T21:16:45.771Z,1.70
2022-09-20T21:19:16.914Z,2.03
2022-09-20T21:21:45.955Z,1.60
2022-09-20T21:24:17.094Z,1.83
2022-09-20T21:26:44.452Z,1.93
2022-09-20T21:29:12.623Z,1.70
2022-09-20T21:31:41.744Z,2.20
2022-09-20T21:34:10.476Z,1.70
2022-09-20T21:36:38.694Z,1.80
2022-09-20T21:39:06.330Z,1.73
2022-09-20T21:41:35.705Z,1.63
2022-09-20T21:44:04.301Z,2.43
2022-09-20T21:46:40.335Z,2.97
2022-09-20T21:49:09.322Z,2.90
2022-09-20T21:51:37.073Z,2.10
2022-09-20T21:54:04.978Z,1.77
2022-09-20T21:56:34.503Z,1.87
2022-09-20T21:59:03.920Z,2.13
2022-09-20T22:01:34.988Z,2.00
2022-09-20T22:04:09.769Z,2.07
2022-09-20T22:06:42.556Z,1.90
2022-09-20T22:09:11.779Z,2.23
2022-09-20T22:11:41.084Z,2.00
2022-09-20T22:14:09.509Z,2.10
2022-09-20T22:16:38.784Z,2.00
2022-09-20T22:19:07.852Z,1.53
2022-09-20T22:21:39.002Z,1.70
2022-09-20T22:24:08.667Z,1.63
2022-09-20T22:26:44.330Z,1.97
2022-09-20T22:29:11.804Z,2.00
2022-09-20T22:31:47.111Z,1.93
2022-09-20T22:34:16.951Z,1.90
2022-09-20T22:36:44.900Z,1.60
2022-09-20T22:39:13.044Z,1.77
2022-09-20T22:41:41.503Z,1.53
2022-09-20T22:44:09.101Z,1.50
2022-09-20T22:46:37.162Z,1.90
2022-09-20T22:49:08.580Z,1.50
2022-09-20T22:51:36.600Z,2.03
2022-09-20T22:54:09.399Z,1.70
2022-09-20T22:56:37.122Z,1.67
2022-09-20T22:59:06.612Z,1.90
2022-09-20T23:01:36.452Z,1.97
2022-09-20T23:04:06.302Z,2.17
2022-09-20T23:06:36.873Z,2.13
2022-09-20T23:09:06.404Z,2.00
2022-09-20T23:11:33.740Z,2.40
2022-09-20T23:14:04.879Z,1.80
2022-09-20T23:16:36.938Z,1.70
2022-09-20T23:19:06.329Z,2.43
2022-09-20T23:21:34.485Z,2.00
2022-09-20T23:24:03.507Z,2.30
2022-09-20T23:26:32.361Z,2.40
2022-09-20T23:29:08.048Z,2.27
2022-09-20T23:31:37.212Z,2.20
2022-09-20T23:34:06.662Z,1.83
2022-09-20T23:36:39.045Z,1.80
2022-09-20T23:39:08.084Z,1.80
2022-09-20T23:41:36.801Z,1.93
2022-09-20T23:44:06.799Z,1.73
2022-09-20T23:46:34.115Z,1.80
2022-09-20T23:49:01.505Z,1.70
2022-09-20T23:51:29.535Z,1.90
2022-09-20T23:53:57.104Z,1.80
2022-09-20T23:56:24.535Z,1.80
2022-09-20T23:58:51.664Z,1.67
